Terminal Aerodrome Forecast
Issued by NWS

Home | Current Version | Previous Version | Text Only | Print | Product List | Glossary On
Versions: 1 2 3 4 5 6 7 8 9 10 11
000
FTUS46 KLOX 112359
TAFPRB
TAF
KPRB 112359Z 1200/1224 11008KT P6SM SCT250
     FM120500 VRB03KT P6SM SCT250
     FM122300 11008KT P6SM SKC=

USA.gov is the U.S. government's official web portal to all federal, state and local government web resources and services.